sensor_id;sensor_type;location;lat;lon;timestamp;P1;durP1;ratioP1;P2;durP2;ratioP2
16436;SDS011;8328;52.206;21.006;2022-07-17T00:01:44;4.40;;;2.20;;
16436;SDS011;8328;52.206;21.006;2022-07-17T00:04:10;5.60;;;2.30;;
16436;SDS011;8328;52.206;21.006;2022-07-17T00:06:36;8.90;;;4.93;;
16436;SDS011;8328;52.206;21.006;2022-07-17T00:09:02;3.50;;;1.90;;
16436;SDS011;8328;52.206;21.006;2022-07-17T00:11:28;2.27;;;1.90;;
16436;SDS011;8328;52.206;21.006;2022-07-17T00:13:54;5.17;;;1.90;;
16436;SDS011;8328;52.206;21.006;2022-07-17T00:16:22;3.47;;;1.90;;
16436;SDS011;8328;52.206;21.006;2022-07-17T00:18:48;3.77;;;2.20;;
16436;SDS011;8328;52.206;21.006;2022-07-17T00:21:14;3.17;;;1.80;;
16436;SDS011;8328;52.206;21.006;2022-07-17T00:23:40;3.70;;;2.13;;
16436;SDS011;8328;52.206;21.006;2022-07-17T00:26:06;3.93;;;1.93;;
16436;SDS011;8328;52.206;21.006;2022-07-17T00:28:33;3.77;;;1.80;;
16436;SDS011;8328;52.206;21.006;2022-07-17T00:30:59;3.97;;;2.40;;
16436;SDS011;8328;52.206;21.006;2022-07-17T00:33:25;3.23;;;1.83;;
16436;SDS011;8328;52.206;21.006;2022-07-17T00:35:51;4.07;;;1.90;;
16436;SDS011;8328;52.206;21.006;2022-07-17T00:38:16;5.37;;;2.10;;
16436;SDS011;8328;52.206;21.006;2022-07-17T00:40:42;3.70;;;2.00;;
16436;SDS011;8328;52.206;21.006;2022-07-17T00:43:08;2.83;;;2.10;;
16436;SDS011;8328;52.206;21.006;2022-07-17T00:45:34;3.20;;;1.90;;
16436;SDS011;8328;52.206;21.006;2022-07-17T00:48:01;2.23;;;1.70;;
16436;SDS011;8328;52.206;21.006;2022-07-17T00:50:30;3.67;;;2.70;;
16436;SDS011;8328;52.206;21.006;2022-07-17T00:52:59;4.10;;;2.37;;
16436;SDS011;8328;52.206;21.006;2022-07-17T00:55:25;3.67;;;2.10;;
16436;SDS011;8328;52.206;21.006;2022-07-17T00:57:52;3.43;;;2.33;;
16436;SDS011;8328;52.206;21.006;2022-07-17T01:00:20;5.00;;;2.23;;
16436;SDS011;8328;52.206;21.006;2022-07-17T01:02:51;3.20;;;2.13;;
16436;SDS011;8328;52.206;21.006;2022-07-17T01:05:18;2.73;;;2.40;;
16436;SDS011;8328;52.206;21.006;2022-07-17T01:07:45;2.73;;;2.30;;
16436;SDS011;8328;52.206;21.006;2022-07-17T01:10:12;5.37;;;2.30;;
16436;SDS011;8328;52.206;21.006;2022-07-17T01:12:41;5.57;;;2.53;;
16436;SDS011;8328;52.206;21.006;2022-07-17T01:15:08;4.37;;;2.63;;
16436;SDS011;8328;52.206;21.006;2022-07-17T01:17:35;2.63;;;1.93;;
16436;SDS011;8328;52.206;21.006;2022-07-17T01:20:06;3.10;;;2.17;;
16436;SDS011;8328;52.206;21.006;2022-07-17T01:22:39;4.30;;;2.60;;
16436;SDS011;8328;52.206;21.006;2022-07-17T01:25:09;5.27;;;2.73;;
16436;SDS011;8328;52.206;21.006;2022-07-17T01:27:35;5.87;;;3.57;;
16436;SDS011;8328;52.206;21.006;2022-07-17T01:30:01;5.70;;;2.40;;
16436;SDS011;8328;52.206;21.006;2022-07-17T01:32:34;3.77;;;2.70;;
16436;SDS011;8328;52.206;21.006;2022-07-17T01:35:01;5.87;;;2.63;;
16436;SDS011;8328;52.206;21.006;2022-07-17T01:37:28;4.17;;;2.90;;
16436;SDS011;8328;52.206;21.006;2022-07-17T01:39:54;4.37;;;3.10;;
16436;SDS011;8328;52.206;21.006;2022-07-17T01:42:21;4.70;;;3.10;;
16436;SDS011;8328;52.206;21.006;2022-07-17T01:44:48;4.53;;;3.30;;
16436;SDS011;8328;52.206;21.006;2022-07-17T01:47:15;4.93;;;3.60;;
16436;SDS011;8328;52.206;21.006;2022-07-17T01:49:45;4.43;;;3.47;;
16436;SDS011;8328;52.206;21.006;2022-07-17T01:52:12;6.90;;;4.00;;
16436;SDS011;8328;52.206;21.006;2022-07-17T01:54:39;7.17;;;3.93;;
16436;SDS011;8328;52.206;21.006;2022-07-17T01:57:05;6.90;;;4.47;;
16436;SDS011;8328;52.206;21.006;2022-07-17T01:59:31;4.77;;;3.33;;
16436;SDS011;8328;52.206;21.006;2022-07-17T02:01:57;4.10;;;3.70;;
16436;SDS011;8328;52.206;21.006;2022-07-17T02:04:22;6.67;;;4.07;;
16436;SDS011;8328;52.206;21.006;2022-07-17T02:06:48;6.17;;;3.90;;
16436;SDS011;8328;52.206;21.006;2022-07-17T02:09:14;6.20;;;4.03;;
16436;SDS011;8328;52.206;21.006;2022-07-17T02:11:40;6.43;;;3.67;;
16436;SDS011;8328;52.206;21.006;2022-07-17T02:14:06;9.17;;;3.77;;
16436;SDS011;8328;52.206;21.006;2022-07-17T02:16:31;5.17;;;3.37;;
16436;SDS011;8328;52.206;21.006;2022-07-17T02:18:57;5.87;;;3.50;;
16436;SDS011;8328;52.206;21.006;2022-07-17T02:21:23;7.90;;;3.90;;
16436;SDS011;8328;52.206;21.006;2022-07-17T02:23:49;4.67;;;3.23;;
16436;SDS011;8328;52.206;21.006;2022-07-17T02:26:15;5.87;;;3.60;;
16436;SDS011;8328;52.206;21.006;2022-07-17T02:28:40;9.43;;;3.97;;
16436;SDS011;8328;52.206;21.006;2022-07-17T02:31:06;6.03;;;3.67;;
16436;SDS011;8328;52.206;21.006;2022-07-17T02:33:32;5.63;;;4.23;;
16436;SDS011;8328;52.206;21.006;2022-07-17T02:35:58;6.30;;;4.47;;
16436;SDS011;8328;52.206;21.006;2022-07-17T02:38:26;5.63;;;3.97;;
16436;SDS011;8328;52.206;21.006;2022-07-17T02:40:52;7.00;;;4.70;;
16436;SDS011;8328;52.206;21.006;2022-07-17T02:43:18;6.50;;;4.03;;
16436;SDS011;8328;52.206;21.006;2022-07-17T02:45:44;7.60;;;3.80;;
16436;SDS011;8328;52.206;21.006;2022-07-17T02:48:10;5.60;;;3.53;;
16436;SDS011;8328;52.206;21.006;2022-07-17T02:50:36;5.83;;;3.97;;
16436;SDS011;8328;52.206;21.006;2022-07-17T02:53:02;9.13;;;3.93;;
16436;SDS011;8328;52.206;21.006;2022-07-17T02:55:28;6.20;;;4.50;;
16436;SDS011;8328;52.206;21.006;2022-07-17T02:57:54;7.53;;;3.90;;
16436;SDS011;8328;52.206;21.006;2022-07-17T03:00:19;7.70;;;3.80;;
16436;SDS011;8328;52.206;21.006;2022-07-17T03:02:46;5.50;;;4.00;;
16436;SDS011;8328;52.206;21.006;2022-07-17T03:05:13;5.90;;;3.83;;
16436;SDS011;8328;52.206;21.006;2022-07-17T03:07:40;6.20;;;3.93;;
16436;SDS011;8328;52.206;21.006;2022-07-17T03:10:09;6.07;;;3.80;;
16436;SDS011;8328;52.206;21.006;2022-07-17T03:12:35;6.30;;;3.70;;
16436;SDS011;8328;52.206;21.006;2022-07-17T03:15:01;6.00;;;3.87;;
16436;SDS011;8328;52.206;21.006;2022-07-17T03:17:28;4.27;;;3.83;;
16436;SDS011;8328;52.206;21.006;2022-07-17T03:19:54;5.10;;;3.80;;
16436;SDS011;8328;52.206;21.006;2022-07-17T03:22:20;4.83;;;3.73;;
16436;SDS011;8328;52.206;21.006;2022-07-17T03:24:46;5.70;;;4.03;;
16436;SDS011;8328;52.206;21.006;2022-07-17T03:27:12;6.43;;;4.20;;
16436;SDS011;8328;52.206;21.006;2022-07-17T03:29:37;6.07;;;3.43;;
16436;SDS011;8328;52.206;21.006;2022-07-17T03:32:04;6.43;;;3.50;;
16436;SDS011;8328;52.206;21.006;2022-07-17T03:34:30;10.70;;;3.93;;
16436;SDS011;8328;52.206;21.006;2022-07-17T03:36:56;7.27;;;3.20;;
16436;SDS011;8328;52.206;21.006;2022-07-17T03:39:22;5.33;;;2.93;;
16436;SDS011;8328;52.206;21.006;2022-07-17T03:41:48;8.93;;;3.50;;
16436;SDS011;8328;52.206;21.006;2022-07-17T03:44:14;5.70;;;3.33;;
16436;SDS011;8328;52.206;21.006;2022-07-17T03:46:40;6.73;;;3.60;;
16436;SDS011;8328;52.206;21.006;2022-07-17T03:49:06;5.70;;;3.60;;
16436;SDS011;8328;52.206;21.006;2022-07-17T03:51:32;5.03;;;3.20;;
16436;SDS011;8328;52.206;21.006;2022-07-17T03:53:58;5.20;;;2.93;;
16436;SDS011;8328;52.206;21.006;2022-07-17T03:56:23;6.07;;;3.50;;
16436;SDS011;8328;52.206;21.006;2022-07-17T03:58:49;6.17;;;3.20;;
16436;SDS011;8328;52.206;21.006;2022-07-17T04:01:15;5.17;;;3.30;;
16436;SDS011;8328;52.206;21.006;2022-07-17T04:03:41;9.83;;;3.90;;
16436;SDS011;8328;52.206;21.006;2022-07-17T04:06:07;4.53;;;2.90;;
16436;SDS011;8328;52.206;21.006;2022-07-17T04:08:32;5.27;;;2.90;;
16436;SDS011;8328;52.206;21.006;2022-07-17T04:10:58;6.13;;;3.37;;
16436;SDS011;8328;52.206;21.006;2022-07-17T04:13:24;7.23;;;3.00;;
16436;SDS011;8328;52.206;21.006;2022-07-17T04:15:50;6.13;;;3.57;;
16436;SDS011;8328;52.206;21.006;2022-07-17T04:18:21;10.90;;;3.60;;
16436;SDS011;8328;52.206;21.006;2022-07-17T04:20:53;3.97;;;3.37;;
16436;SDS011;8328;52.206;21.006;2022-07-17T04:23:20;8.87;;;3.40;;
16436;SDS011;8328;52.206;21.006;2022-07-17T04:25:46;5.33;;;3.23;;
16436;SDS011;8328;52.206;21.006;2022-07-17T04:28:12;4.63;;;2.97;;
16436;SDS011;8328;52.206;21.006;2022-07-17T04:30:39;5.67;;;3.57;;
16436;SDS011;8328;52.206;21.006;2022-07-17T04:33:05;6.23;;;3.00;;
16436;SDS011;8328;52.206;21.006;2022-07-17T04:35:31;5.80;;;3.30;;
16436;SDS011;8328;52.206;21.006;2022-07-17T04:37:57;4.47;;;3.07;;
16436;SDS011;8328;52.206;21.006;2022-07-17T04:40:23;6.87;;;3.27;;
16436;SDS011;8328;52.206;21.006;2022-07-17T04:42:49;5.27;;;3.00;;
16436;SDS011;8328;52.206;21.006;2022-07-17T04:45:15;6.50;;;3.00;;
16436;SDS011;8328;52.206;21.006;2022-07-17T04:47:41;3.43;;;2.83;;
16436;SDS011;8328;52.206;21.006;2022-07-17T04:50:07;4.53;;;2.90;;
16436;SDS011;8328;52.206;21.006;2022-07-17T04:52:34;4.87;;;2.73;;
16436;SDS011;8328;52.206;21.006;2022-07-17T04:55:00;6.13;;;2.87;;
16436;SDS011;8328;52.206;21.006;2022-07-17T04:57:26;4.87;;;2.63;;
16436;SDS011;8328;52.206;21.006;2022-07-17T04:59:52;3.73;;;2.10;;
16436;SDS011;8328;52.206;21.006;2022-07-17T05:02:18;4.60;;;2.40;;
16436;SDS011;8328;52.206;21.006;2022-07-17T05:04:44;3.00;;;2.07;;
16436;SDS011;8328;52.206;21.006;2022-07-17T05:07:11;3.73;;;2.27;;
16436;SDS011;8328;52.206;21.006;2022-07-17T05:09:38;5.57;;;2.23;;
16436;SDS011;8328;52.206;21.006;2022-07-17T05:12:04;6.93;;;2.00;;
16436;SDS011;8328;52.206;21.006;2022-07-17T05:14:30;4.00;;;1.93;;
16436;SDS011;8328;52.206;21.006;2022-07-17T05:16:56;5.47;;;2.17;;
16436;SDS011;8328;52.206;21.006;2022-07-17T05:19:22;5.90;;;2.33;;
16436;SDS011;8328;52.206;21.006;2022-07-17T05:21:48;5.53;;;2.20;;
16436;SDS011;8328;52.206;21.006;2022-07-17T05:24:15;2.70;;;2.07;;
16436;SDS011;8328;52.206;21.006;2022-07-17T05:26:40;5.13;;;2.13;;
16436;SDS011;8328;52.206;21.006;2022-07-17T05:29:06;4.07;;;1.80;;
16436;SDS011;8328;52.206;21.006;2022-07-17T05:31:32;4.47;;;2.07;;
16436;SDS011;8328;52.206;21.006;2022-07-17T05:33:58;5.33;;;2.20;;
16436;SDS011;8328;52.206;21.006;2022-07-17T05:36:24;5.23;;;1.90;;
16436;SDS011;8328;52.206;21.006;2022-07-17T05:38:50;3.50;;;2.00;;
16436;SDS011;8328;52.206;21.006;2022-07-17T05:41:16;4.50;;;2.30;;
16436;SDS011;8328;52.206;21.006;2022-07-17T05:43:42;5.67;;;2.20;;
16436;SDS011;8328;52.206;21.006;2022-07-17T05:46:08;3.13;;;2.10;;
16436;SDS011;8328;52.206;21.006;2022-07-17T05:48:34;3.20;;;2.07;;
16436;SDS011;8328;52.206;21.006;2022-07-17T05:51:00;4.70;;;2.27;;
16436;SDS011;8328;52.206;21.006;2022-07-17T05:53:26;4.13;;;2.10;;
16436;SDS011;8328;52.206;21.006;2022-07-17T05:55:52;3.73;;;2.47;;
16436;SDS011;8328;52.206;21.006;2022-07-17T05:58:18;4.10;;;2.33;;
16436;SDS011;8328;52.206;21.006;2022-07-17T06:00:44;3.00;;;1.80;;
16436;SDS011;8328;52.206;21.006;2022-07-17T06:03:10;9.17;;;2.37;;
16436;SDS011;8328;52.206;21.006;2022-07-17T06:05:36;8.03;;;2.33;;
16436;SDS011;8328;52.206;21.006;2022-07-17T06:08:04;2.73;;;2.10;;
16436;SDS011;8328;52.206;21.006;2022-07-17T06:10:30;3.03;;;2.17;;
16436;SDS011;8328;52.206;21.006;2022-07-17T06:12:56;5.60;;;2.20;;
16436;SDS011;8328;52.206;21.006;2022-07-17T06:15:22;4.50;;;2.00;;
16436;SDS011;8328;52.206;21.006;2022-07-17T06:17:49;6.23;;;2.90;;
16436;SDS011;8328;52.206;21.006;2022-07-17T06:20:15;4.13;;;2.20;;
16436;SDS011;8328;52.206;21.006;2022-07-17T06:22:42;4.33;;;2.80;;
16436;SDS011;8328;52.206;21.006;2022-07-17T06:25:08;4.53;;;2.00;;
16436;SDS011;8328;52.206;21.006;2022-07-17T06:27:35;4.13;;;1.87;;
16436;SDS011;8328;52.206;21.006;2022-07-17T06:30:04;5.37;;;2.10;;
16436;SDS011;8328;52.206;21.006;2022-07-17T06:32:31;6.47;;;2.20;;
16436;SDS011;8328;52.206;21.006;2022-07-17T06:34:59;6.97;;;2.83;;
16436;SDS011;8328;52.206;21.006;2022-07-17T06:37:25;6.37;;;3.33;;
16436;SDS011;8328;52.206;21.006;2022-07-17T06:39:53;2.93;;;2.23;;
16436;SDS011;8328;52.206;21.006;2022-07-17T06:42:19;4.10;;;2.83;;
16436;SDS011;8328;52.206;21.006;2022-07-17T06:44:48;4.03;;;2.77;;
16436;SDS011;8328;52.206;21.006;2022-07-17T06:47:14;5.50;;;3.20;;
16436;SDS011;8328;52.206;21.006;2022-07-17T06:49:40;4.73;;;3.10;;
16436;SDS011;8328;52.206;21.006;2022-07-17T06:52:08;5.13;;;3.03;;
16436;SDS011;8328;52.206;21.006;2022-07-17T06:54:34;5.80;;;2.87;;
16436;SDS011;8328;52.206;21.006;2022-07-17T06:57:00;4.70;;;3.13;;
16436;SDS011;8328;52.206;21.006;2022-07-17T06:59:26;5.63;;;3.57;;
16436;SDS011;8328;52.206;21.006;2022-07-17T07:01:52;4.23;;;2.80;;
16436;SDS011;8328;52.206;21.006;2022-07-17T07:04:25;5.33;;;3.50;;
16436;SDS011;8328;52.206;21.006;2022-07-17T07:06:53;6.90;;;4.03;;
16436;SDS011;8328;52.206;21.006;2022-07-17T07:09:19;6.27;;;3.47;;
16436;SDS011;8328;52.206;21.006;2022-07-17T07:11:47;3.87;;;3.13;;
16436;SDS011;8328;52.206;21.006;2022-07-17T07:14:13;3.80;;;3.17;;
16436;SDS011;8328;52.206;21.006;2022-07-17T07:16:39;5.93;;;3.13;;
16436;SDS011;8328;52.206;21.006;2022-07-17T07:19:05;5.50;;;3.90;;
16436;SDS011;8328;52.206;21.006;2022-07-17T07:21:31;6.07;;;3.63;;
16436;SDS011;8328;52.206;21.006;2022-07-17T07:23:57;3.97;;;3.53;;
16436;SDS011;8328;52.206;21.006;2022-07-17T07:26:23;8.40;;;3.63;;
16436;SDS011;8328;52.206;21.006;2022-07-17T07:28:49;5.00;;;3.33;;
16436;SDS011;8328;52.206;21.006;2022-07-17T07:31:15;7.00;;;3.70;;
16436;SDS011;8328;52.206;21.006;2022-07-17T07:33:44;4.83;;;3.47;;
16436;SDS011;8328;52.206;21.006;2022-07-17T07:36:10;4.83;;;3.30;;
16436;SDS011;8328;52.206;21.006;2022-07-17T07:38:36;5.13;;;3.33;;
16436;SDS011;8328;52.206;21.006;2022-07-17T07:41:02;5.87;;;3.30;;
16436;SDS011;8328;52.206;21.006;2022-07-17T07:43:28;5.97;;;4.47;;
16436;SDS011;8328;52.206;21.006;2022-07-17T07:45:54;5.73;;;3.60;;
16436;SDS011;8328;52.206;21.006;2022-07-17T07:48:20;5.73;;;3.33;;
16436;SDS011;8328;52.206;21.006;2022-07-17T07:50:48;5.17;;;3.17;;
16436;SDS011;8328;52.206;21.006;2022-07-17T07:53:15;6.20;;;3.43;;
16436;SDS011;8328;52.206;21.006;2022-07-17T07:55:41;4.00;;;2.90;;
16436;SDS011;8328;52.206;21.006;2022-07-17T07:58:10;3.57;;;2.80;;
16436;SDS011;8328;52.206;21.006;2022-07-17T08:00:38;4.50;;;3.27;;
16436;SDS011;8328;52.206;21.006;2022-07-17T08:03:05;5.63;;;3.30;;
16436;SDS011;8328;52.206;21.006;2022-07-17T08:05:32;4.50;;;2.93;;
16436;SDS011;8328;52.206;21.006;2022-07-17T08:07:58;2.87;;;2.30;;
16436;SDS011;8328;52.206;21.006;2022-07-17T08:10:24;5.23;;;2.87;;
16436;SDS011;8328;52.206;21.006;2022-07-17T08:12:52;4.80;;;2.93;;
16436;SDS011;8328;52.206;21.006;2022-07-17T08:15:19;4.03;;;2.83;;
16436;SDS011;8328;52.206;21.006;2022-07-17T08:17:46;4.10;;;2.40;;
16436;SDS011;8328;52.206;21.006;2022-07-17T08:20:13;3.23;;;2.47;;
16436;SDS011;8328;52.206;21.006;2022-07-17T08:22:43;5.77;;;2.50;;
16436;SDS011;8328;52.206;21.006;2022-07-17T08:25:10;2.83;;;2.20;;
16436;SDS011;8328;52.206;21.006;2022-07-17T08:27:40;4.63;;;2.37;;
16436;SDS011;8328;52.206;21.006;2022-07-17T08:30:08;5.93;;;2.30;;
16436;SDS011;8328;52.206;21.006;2022-07-17T08:32:36;2.73;;;2.20;;
16436;SDS011;8328;52.206;21.006;2022-07-17T08:35:02;4.87;;;2.40;;
16436;SDS011;8328;52.206;21.006;2022-07-17T08:37:28;4.70;;;2.50;;
16436;SDS011;8328;52.206;21.006;2022-07-17T08:39:54;3.07;;;2.20;;
16436;SDS011;8328;52.206;21.006;2022-07-17T08:42:20;7.10;;;2.50;;
16436;SDS011;8328;52.206;21.006;2022-07-17T08:44:47;2.90;;;1.93;;
16436;SDS011;8328;52.206;21.006;2022-07-17T08:47:13;3.37;;;2.30;;
16436;SDS011;8328;52.206;21.006;2022-07-17T08:49:44;3.60;;;2.20;;
16436;SDS011;8328;52.206;21.006;2022-07-17T08:52:11;3.57;;;2.10;;
16436;SDS011;8328;52.206;21.006;2022-07-17T08:54:38;3.23;;;1.93;;
16436;SDS011;8328;52.206;21.006;2022-07-17T08:57:05;3.20;;;2.10;;
16436;SDS011;8328;52.206;21.006;2022-07-17T08:59:31;3.67;;;1.90;;
16436;SDS011;8328;52.206;21.006;2022-07-17T09:02:00;3.13;;;1.93;;
16436;SDS011;8328;52.206;21.006;2022-07-17T09:04:28;3.67;;;1.87;;
16436;SDS011;8328;52.206;21.006;2022-07-17T09:07:00;3.00;;;1.83;;
16436;SDS011;8328;52.206;21.006;2022-07-17T09:09:27;4.57;;;1.90;;
16436;SDS011;8328;52.206;21.006;2022-07-17T09:11:54;3.17;;;1.90;;
16436;SDS011;8328;52.206;21.006;2022-07-17T09:14:20;2.27;;;1.87;;
16436;SDS011;8328;52.206;21.006;2022-07-17T09:16:51;2.40;;;1.63;;
16436;SDS011;8328;52.206;21.006;2022-07-17T09:19:27;4.87;;;1.93;;
16436;SDS011;8328;52.206;21.006;2022-07-17T09:22:15;3.10;;;1.63;;
16436;SDS011;8328;52.206;21.006;2022-07-17T09:24:53;3.20;;;1.53;;
16436;SDS011;8328;52.206;21.006;2022-07-17T09:29:50;3.43;;;1.50;;
16436;SDS011;8328;52.206;21.006;2022-07-17T09:32:18;3.90;;;1.60;;
16436;SDS011;8328;52.206;21.006;2022-07-17T09:34:45;3.63;;;1.60;;
16436;SDS011;8328;52.206;21.006;2022-07-17T09:37:12;4.43;;;1.87;;
16436;SDS011;8328;52.206;21.006;2022-07-17T09:39:38;5.13;;;1.33;;
16436;SDS011;8328;52.206;21.006;2022-07-17T09:42:05;3.10;;;1.20;;
16436;SDS011;8328;52.206;21.006;2022-07-17T09:44:31;1.60;;;1.20;;
16436;SDS011;8328;52.206;21.006;2022-07-17T09:46:57;4.10;;;1.40;;
16436;SDS011;8328;52.206;21.006;2022-07-17T09:49:27;3.60;;;1.53;;
16436;SDS011;8328;52.206;21.006;2022-07-17T09:51:54;2.77;;;1.40;;
16436;SDS011;8328;52.206;21.006;2022-07-17T09:54:21;2.40;;;1.03;;
16436;SDS011;8328;52.206;21.006;2022-07-17T09:56:51;2.13;;;1.53;;
16436;SDS011;8328;52.206;21.006;2022-07-17T09:59:22;2.17;;;1.20;;
16436;SDS011;8328;52.206;21.006;2022-07-17T10:01:52;4.03;;;1.40;;
16436;SDS011;8328;52.206;21.006;2022-07-17T10:04:19;1.93;;;1.00;;
16436;SDS011;8328;52.206;21.006;2022-07-17T10:06:45;2.30;;;1.10;;
16436;SDS011;8328;52.206;21.006;2022-07-17T10:09:11;2.23;;;1.47;;
16436;SDS011;8328;52.206;21.006;2022-07-17T10:11:39;3.80;;;1.60;;
16436;SDS011;8328;52.206;21.006;2022-07-17T10:14:06;3.43;;;1.60;;
16436;SDS011;8328;52.206;21.006;2022-07-17T10:16:35;3.80;;;1.60;;
16436;SDS011;8328;52.206;21.006;2022-07-17T10:19:03;1.70;;;1.40;;
16436;SDS011;8328;52.206;21.006;2022-07-17T10:21:50;2.93;;;1.83;;
16436;SDS011;8328;52.206;21.006;2022-07-17T10:24:20;3.83;;;1.63;;
16436;SDS011;8328;52.206;21.006;2022-07-17T10:26:46;3.00;;;1.77;;
16436;SDS011;8328;52.206;21.006;2022-07-17T10:31:57;1.50;;;1.10;;
16436;SDS011;8328;52.206;21.006;2022-07-17T10:34:38;2.07;;;1.10;;
16436;SDS011;8328;52.206;21.006;2022-07-17T10:37:16;2.20;;;1.03;;
16436;SDS011;8328;52.206;21.006;2022-07-17T10:39:53;1.53;;;1.00;;
16436;SDS011;8328;52.206;21.006;2022-07-17T10:45:07;2.40;;;1.33;;
16436;SDS011;8328;52.206;21.006;2022-07-17T10:47:43;1.80;;;1.27;;
16436;SDS011;8328;52.206;21.006;2022-07-17T10:50:12;2.50;;;1.30;;
16436;SDS011;8328;52.206;21.006;2022-07-17T10:52:41;5.30;;;1.33;;
16436;SDS011;8328;52.206;21.006;2022-07-17T10:55:28;2.63;;;1.30;;
16436;SDS011;8328;52.206;21.006;2022-07-17T10:57:53;1.90;;;1.40;;
16436;SDS011;8328;52.206;21.006;2022-07-17T11:00:20;2.00;;;1.80;;
16436;SDS011;8328;52.206;21.006;2022-07-17T11:02:46;3.70;;;1.57;;
16436;SDS011;8328;52.206;21.006;2022-07-17T11:05:13;2.67;;;1.43;;
16436;SDS011;8328;52.206;21.006;2022-07-17T11:08:01;2.73;;;1.43;;
16436;SDS011;8328;52.206;21.006;2022-07-17T11:10:28;2.07;;;1.60;;
16436;SDS011;8328;52.206;21.006;2022-07-17T11:12:55;2.27;;;1.37;;
16436;SDS011;8328;52.206;21.006;2022-07-17T11:15:39;3.13;;;1.40;;
16436;SDS011;8328;52.206;21.006;2022-07-17T11:18:10;3.83;;;1.83;;
16436;SDS011;8328;52.206;21.006;2022-07-17T11:20:59;4.63;;;1.53;;
16436;SDS011;8328;52.206;21.006;2022-07-17T11:23:29;2.27;;;1.30;;
16436;SDS011;8328;52.206;21.006;2022-07-17T11:31:26;2.07;;;1.50;;
16436;SDS011;8328;52.206;21.006;2022-07-17T11:36:27;3.30;;;1.43;;
16436;SDS011;8328;52.206;21.006;2022-07-17T11:38:58;3.93;;;1.80;;
16436;SDS011;8328;52.206;21.006;2022-07-17T11:41:42;5.50;;;1.40;;
16436;SDS011;8328;52.206;21.006;2022-07-17T11:44:10;2.50;;;1.40;;
16436;SDS011;8328;52.206;21.006;2022-07-17T11:46:41;2.90;;;1.30;;
16436;SDS011;8328;52.206;21.006;2022-07-17T11:49:10;3.03;;;1.43;;
16436;SDS011;8328;52.206;21.006;2022-07-17T11:51:48;1.70;;;1.40;;
16436;SDS011;8328;52.206;21.006;2022-07-17T11:54:14;3.70;;;1.40;;
16436;SDS011;8328;52.206;21.006;2022-07-17T11:56:42;2.30;;;1.27;;
16436;SDS011;8328;52.206;21.006;2022-07-17T11:59:22;1.83;;;1.20;;
16436;SDS011;8328;52.206;21.006;2022-07-17T12:01:50;2.97;;;1.30;;
16436;SDS011;8328;52.206;21.006;2022-07-17T12:04:16;2.43;;;1.20;;
16436;SDS011;8328;52.206;21.006;2022-07-17T12:06:43;2.13;;;1.30;;
16436;SDS011;8328;52.206;21.006;2022-07-17T12:09:10;2.37;;;1.33;;
16436;SDS011;8328;52.206;21.006;2022-07-17T12:11:45;2.70;;;1.37;;
16436;SDS011;8328;52.206;21.006;2022-07-17T12:14:15;2.57;;;1.10;;
16436;SDS011;8328;52.206;21.006;2022-07-17T12:16:41;3.80;;;1.60;;
16436;SDS011;8328;52.206;21.006;2022-07-17T12:19:11;1.93;;;1.10;;
16436;SDS011;8328;52.206;21.006;2022-07-17T12:21:55;1.90;;;1.17;;
16436;SDS011;8328;52.206;21.006;2022-07-17T12:24:29;3.60;;;1.40;;
16436;SDS011;8328;52.206;21.006;2022-07-17T12:27:05;4.03;;;1.20;;
16436;SDS011;8328;52.206;21.006;2022-07-17T12:29:32;2.70;;;1.20;;
16436;SDS011;8328;52.206;21.006;2022-07-17T12:32:09;2.17;;;1.20;;
16436;SDS011;8328;52.206;21.006;2022-07-17T12:34:41;1.77;;;1.40;;
16436;SDS011;8328;52.206;21.006;2022-07-17T12:37:13;2.20;;;1.33;;
16436;SDS011;8328;52.206;21.006;2022-07-17T12:39:43;2.03;;;1.00;;
16436;SDS011;8328;52.206;21.006;2022-07-17T12:42:10;2.17;;;1.00;;
16436;SDS011;8328;52.206;21.006;2022-07-17T12:44:42;1.40;;;1.00;;
16436;SDS011;8328;52.206;21.006;2022-07-17T12:47:09;2.10;;;0.90;;
16436;SDS011;8328;52.206;21.006;2022-07-17T12:49:35;1.17;;;0.90;;
16436;SDS011;8328;52.206;21.006;2022-07-17T12:52:01;2.03;;;0.93;;
16436;SDS011;8328;52.206;21.006;2022-07-17T12:54:27;1.63;;;0.70;;
16436;SDS011;8328;52.206;21.006;2022-07-17T12:56:53;1.63;;;1.10;;
16436;SDS011;8328;52.206;21.006;2022-07-17T12:59:20;1.50;;;1.20;;
16436;SDS011;8328;52.206;21.006;2022-07-17T13:01:46;1.57;;;1.10;;
16436;SDS011;8328;52.206;21.006;2022-07-17T13:04:12;2.03;;;0.73;;
16436;SDS011;8328;52.206;21.006;2022-07-17T13:06:38;2.77;;;1.00;;
16436;SDS011;8328;52.206;21.006;2022-07-17T13:09:06;1.57;;;1.17;;
16436;SDS011;8328;52.206;21.006;2022-07-17T13:11:41;2.90;;;1.90;;
16436;SDS011;8328;52.206;21.006;2022-07-17T13:14:08;2.83;;;1.10;;
16436;SDS011;8328;52.206;21.006;2022-07-17T13:16:38;1.47;;;0.83;;
16436;SDS011;8328;52.206;21.006;2022-07-17T13:19:04;1.47;;;1.00;;
16436;SDS011;8328;52.206;21.006;2022-07-17T13:21:31;2.37;;;1.00;;
16436;SDS011;8328;52.206;21.006;2022-07-17T13:23:57;2.83;;;1.70;;
16436;SDS011;8328;52.206;21.006;2022-07-17T13:26:23;1.60;;;0.90;;
16436;SDS011;8328;52.206;21.006;2022-07-17T13:28:49;1.23;;;0.90;;
16436;SDS011;8328;52.206;21.006;2022-07-17T13:31:15;1.20;;;1.10;;
16436;SDS011;8328;52.206;21.006;2022-07-17T13:33:41;1.10;;;1.00;;
16436;SDS011;8328;52.206;21.006;2022-07-17T13:36:07;2.30;;;1.37;;
16436;SDS011;8328;52.206;21.006;2022-07-17T13:38:33;1.87;;;1.10;;
16436;SDS011;8328;52.206;21.006;2022-07-17T13:40:59;1.57;;;1.00;;
16436;SDS011;8328;52.206;21.006;2022-07-17T13:43:25;1.27;;;1.00;;
16436;SDS011;8328;52.206;21.006;2022-07-17T13:45:51;3.05;;;1.10;;
16436;SDS011;8328;52.206;21.006;2022-07-17T13:48:17;1.65;;;1.13;;
16436;SDS011;8328;52.206;21.006;2022-07-17T13:50:43;1.83;;;0.93;;
16436;SDS011;8328;52.206;21.006;2022-07-17T13:53:09;1.25;;;0.85;;
16436;SDS011;8328;52.206;21.006;2022-07-17T13:55:38;1.40;;;0.90;;
16436;SDS011;8328;52.206;21.006;2022-07-17T13:58:05;1.67;;;1.10;;
16436;SDS011;8328;52.206;21.006;2022-07-17T14:00:33;1.45;;;1.00;;
16436;SDS011;8328;52.206;21.006;2022-07-17T14:02:59;2.78;;;1.15;;
16436;SDS011;8328;52.206;21.006;2022-07-17T14:05:24;2.22;;;1.10;;
16436;SDS011;8328;52.206;21.006;2022-07-17T14:07:50;1.25;;;1.15;;
16436;SDS011;8328;52.206;21.006;2022-07-17T14:10:16;3.22;;;0.95;;
16436;SDS011;8328;52.206;21.006;2022-07-17T14:12:42;3.78;;;3.40;;
16436;SDS011;8328;52.206;21.006;2022-07-17T14:15:11;1.27;;;1.00;;
16436;SDS011;8328;52.206;21.006;2022-07-17T14:17:37;1.98;;;0.90;;
16436;SDS011;8328;52.206;21.006;2022-07-17T14:20:03;1.23;;;0.90;;
16436;SDS011;8328;52.206;21.006;2022-07-17T14:22:30;1.20;;;1.10;;
16436;SDS011;8328;52.206;21.006;2022-07-17T14:24:56;1.83;;;1.00;;
16436;SDS011;8328;52.206;21.006;2022-07-17T14:27:22;0.80;;;0.77;;
16436;SDS011;8328;52.206;21.006;2022-07-17T14:29:48;1.75;;;1.08;;
16436;SDS011;8328;52.206;21.006;2022-07-17T14:32:14;1.80;;;0.70;;
16436;SDS011;8328;52.206;21.006;2022-07-17T14:34:41;2.90;;;0.95;;
16436;SDS011;8328;52.206;21.006;2022-07-17T14:37:07;1.38;;;0.98;;
16436;SDS011;8328;52.206;21.006;2022-07-17T14:39:34;1.73;;;0.95;;
16436;SDS011;8328;52.206;21.006;2022-07-17T14:42:00;1.85;;;0.95;;
16436;SDS011;8328;52.206;21.006;2022-07-17T14:44:27;1.43;;;0.90;;
16436;SDS011;8328;52.206;21.006;2022-07-17T14:46:56;1.80;;;0.73;;
16436;SDS011;8328;52.206;21.006;2022-07-17T14:49:27;2.23;;;1.10;;
16436;SDS011;8328;52.206;21.006;2022-07-17T14:51:53;2.10;;;1.03;;
16436;SDS011;8328;52.206;21.006;2022-07-17T14:54:21;2.07;;;0.77;;
16436;SDS011;8328;52.206;21.006;2022-07-17T14:56:47;3.40;;;0.90;;
16436;SDS011;8328;52.206;21.006;2022-07-17T14:59:13;2.03;;;0.80;;
16436;SDS011;8328;52.206;21.006;2022-07-17T15:01:39;1.50;;;0.80;;
16436;SDS011;8328;52.206;21.006;2022-07-17T15:04:05;2.23;;;0.93;;
16436;SDS011;8328;52.206;21.006;2022-07-17T15:06:31;2.33;;;1.30;;